createdAt,value
2018-02-12T00:01:40.953Z,100068.92
2018-02-12T00:04:08.621Z,100065.42
2018-02-12T00:06:36.219Z,100071.11
2018-02-12T00:09:03.886Z,100075.64
2018-02-12T00:11:31.554Z,100075.69
2018-02-12T00:13:59.319Z,100079.34
2018-02-12T00:16:27.035Z,100074.49
2018-02-12T00:18:54.820Z,100084.58
2018-02-12T00:21:22.427Z,100090.20
2018-02-12T00:23:50.149Z,100086.82
2018-02-12T00:26:17.763Z,100091.35
2018-02-12T00:28:45.390Z,100091.41
2018-02-12T00:31:13.012Z,100099.62
2018-02-12T00:33:40.725Z,100097.08
2018-02-12T00:36:08.334Z,100100.00
2018-02-12T00:38:36.054Z,100105.41
2018-02-12T00:41:05.150Z,100096.20
2018-02-12T00:43:32.854Z,100104.46
2018-02-12T00:46:00.601Z,100103.89
2018-02-12T00:48:28.306Z,100100.64
2018-02-12T00:50:55.997Z,100107.95
2018-02-12T00:53:23.690Z,100118.58
2018-02-12T00:55:51.388Z,100121.72
2018-02-12T00:58:19.151Z,100112.94
2018-02-12T01:00:46.837Z,100111.63
2018-02-12T01:03:14.491Z,100121.09
2018-02-12T01:05:42.202Z,100124.13
2018-02-12T01:08:09.906Z,100135.04
2018-02-12T01:10:37.629Z,100133.08
2018-02-12T01:13:05.322Z,100138.66
2018-02-12T01:15:33.052Z,100134.52
2018-02-12T01:18:00.713Z,100139.91
2018-02-12T01:20:28.491Z,100154.52
2018-02-12T01:22:56.159Z,100143.98
2018-02-12T01:25:23.870Z,100145.71
2018-02-12T01:27:51.562Z,100148.13
2018-02-12T01:30:19.348Z,100153.07
2018-02-12T01:32:47.023Z,100152.43
2018-02-12T01:35:14.722Z,100147.40
2018-02-12T01:37:42.398Z,100147.44
2018-02-12T01:40:10.163Z,100158.20
2018-02-12T01:42:37.860Z,100156.70
2018-02-12T01:45:05.474Z,100155.55
2018-02-12T01:47:33.318Z,100156.09
2018-02-12T01:50:12.744Z,100165.48
2018-02-12T01:52:40.435Z,100171.98
2018-02-12T01:55:08.180Z,100174.31
2018-02-12T01:57:35.889Z,100172.01
2018-02-12T02:00:03.691Z,100172.01
2018-02-12T02:02:31.360Z,100172.35
2018-02-12T02:04:59.086Z,100173.79
2018-02-12T02:07:26.793Z,100176.13
2018-02-12T02:09:54.510Z,100179.00
2018-02-12T02:12:22.178Z,100173.98
2018-02-12T02:14:49.822Z,100185.08
2018-02-12T02:17:17.488Z,100186.18
2018-02-12T02:19:45.233Z,100184.81
2018-02-12T02:22:12.912Z,100189.92
2018-02-12T02:24:40.742Z,100187.62
2018-02-12T02:27:08.432Z,100185.47
2018-02-12T02:29:36.141Z,100193.13
2018-02-12T02:32:03.940Z,100192.83
2018-02-12T02:34:31.550Z,100195.06
2018-02-12T02:36:59.282Z,100190.48
2018-02-12T02:39:27.804Z,100202.38
2018-02-12T02:41:55.526Z,100189.01
2018-02-12T02:44:23.238Z,100194.06
2018-02-12T02:46:50.938Z,100192.94
2018-02-12T02:49:18.663Z,100186.44
2018-02-12T02:51:47.035Z,100191.08
2018-02-12T02:54:14.786Z,100188.19
2018-02-12T02:56:42.494Z,100190.33
2018-02-12T02:59:10.178Z,100190.41
2018-02-12T03:01:37.909Z,100198.19
2018-02-12T03:04:05.590Z,100201.81
2018-02-12T03:06:33.322Z,100202.23
2018-02-12T03:09:00.996Z,100205.78
2018-02-12T03:11:28.618Z,100210.77
2018-02-12T03:13:56.294Z,100218.39
2018-02-12T03:16:23.943Z,100215.30
2018-02-12T03:18:51.634Z,100218.80
2018-02-12T03:21:19.462Z,100214.05
2018-02-12T03:23:47.133Z,100225.41
2018-02-12T03:26:14.856Z,100225.15
2018-02-12T03:28:42.539Z,100233.05
2018-02-12T03:31:10.274Z,100230.40
2018-02-12T03:33:37.980Z,100228.24
2018-02-12T03:36:05.686Z,100240.63
2018-02-12T03:38:33.369Z,100236.06
2018-02-12T03:41:01.076Z,100233.79
2018-02-12T03:43:28.768Z,100241.20
2018-02-12T03:45:57.270Z,100250.34
2018-02-12T03:48:24.974Z,100262.56
2018-02-12T03:50:52.729Z,100261.55
2018-02-12T03:53:20.406Z,100267.81
2018-02-12T03:55:48.097Z,100262.72
2018-02-12T03:58:15.821Z,100252.59
2018-02-12T04:00:43.509Z,100267.25
2018-02-12T04:03:11.203Z,100272.88
2018-02-12T04:05:38.974Z,100269.55
2018-02-12T04:08:06.721Z,100274.65
2018-02-12T04:10:34.414Z,100278.73
2018-02-12T04:13:02.047Z,100277.11
2018-02-12T04:15:29.810Z,100276.66
2018-02-12T04:17:57.502Z,100291.20
2018-02-12T04:20:25.192Z,100290.09
2018-02-12T04:22:52.933Z,100301.42
2018-02-12T04:25:20.610Z,100297.05
2018-02-12T04:27:48.319Z,100301.80
2018-02-12T04:30:15.914Z,100306.19
2018-02-12T04:32:43.738Z,100300.18
2018-02-12T04:35:11.420Z,100304.48
2018-02-12T04:37:39.130Z,100302.78
2018-02-12T04:40:06.844Z,100308.78
2018-02-12T04:42:34.549Z,100312.72
2018-02-12T04:45:02.268Z,100311.39
2018-02-12T04:47:29.987Z,100311.77
2018-02-12T04:49:57.658Z,100316.00
2018-02-12T04:52:25.368Z,100311.70
2018-02-12T04:54:53.087Z,100320.98
2018-02-12T04:57:20.854Z,100320.70
2018-02-12T04:59:48.548Z,100325.53
2018-02-12T05:02:17.630Z,100328.09
2018-02-12T05:04:46.028Z,100322.48
2018-02-12T05:07:13.700Z,100328.56
2018-02-12T05:09:41.531Z,100340.75
2018-02-12T05:12:09.201Z,100334.30
2018-02-12T05:14:36.968Z,100339.69
2018-02-12T05:17:04.634Z,100340.98
2018-02-12T05:19:32.343Z,100358.41
2018-02-12T05:22:00.020Z,100346.63
2018-02-12T05:24:27.747Z,100342.86
2018-02-12T05:26:55.481Z,100343.35
2018-02-12T05:29:23.199Z,100351.91
2018-02-12T05:31:50.796Z,100361.16
2018-02-12T05:34:18.514Z,100351.34
2018-02-12T05:36:46.190Z,100355.63
2018-02-12T05:39:13.906Z,100356.27
2018-02-12T05:41:41.575Z,100360.92
2018-02-12T05:44:09.285Z,100367.25
2018-02-12T05:46:36.958Z,100366.45
2018-02-12T05:49:04.663Z,100374.80
2018-02-12T05:51:32.382Z,100376.63
2018-02-12T05:54:00.085Z,100386.08
2018-02-12T05:56:27.790Z,100382.97
2018-02-12T05:58:55.527Z,100386.71
2018-02-12T06:01:23.326Z,100389.57
2018-02-12T06:03:51.061Z,100388.50
2018-02-12T06:06:18.778Z,100393.20
2018-02-12T06:08:46.569Z,100394.94
2018-02-12T06:11:14.266Z,100397.30
2018-02-12T06:13:41.992Z,100398.41
2018-02-12T06:16:09.707Z,100403.49
2018-02-12T06:18:37.389Z,100410.54
2018-02-12T06:21:05.113Z,100411.86
2018-02-12T06:23:32.788Z,100417.72
2018-02-12T06:26:00.474Z,100421.48
2018-02-12T06:28:28.156Z,100430.13
2018-02-12T06:30:55.861Z,100429.23
2018-02-12T06:33:23.597Z,100431.13
2018-02-12T06:35:51.307Z,100435.80
2018-02-12T06:38:19.021Z,100438.03
2018-02-12T06:40:46.693Z,100447.20
2018-02-12T06:43:14.357Z,100449.31
2018-02-12T06:45:42.164Z,100446.98
2018-02-12T06:48:10.787Z,100447.11
2018-02-12T06:50:38.491Z,100458.61
2018-02-12T06:53:06.828Z,100457.89
2018-02-12T06:55:34.543Z,100458.91
2018-02-12T06:58:02.232Z,100466.03
2018-02-12T07:00:29.967Z,100464.83
2018-02-12T07:02:57.678Z,100475.17
2018-02-12T07:05:25.383Z,100473.96
2018-02-12T07:07:53.716Z,100474.63
2018-02-12T07:10:21.467Z,100483.96
2018-02-12T07:12:49.159Z,100486.69
2018-02-12T07:15:16.862Z,100490.45
2018-02-12T07:17:44.546Z,100493.93
2018-02-12T07:20:12.325Z,100503.87
2018-02-12T07:22:40.029Z,100508.41
2018-02-12T07:25:07.800Z,100511.86
2018-02-12T07:27:35.498Z,100510.34
2018-02-12T07:30:03.228Z,100510.32
2018-02-12T07:32:30.925Z,100508.45
2018-02-12T07:34:58.666Z,100516.80
2018-02-12T07:37:26.386Z,100519.33
2018-02-12T07:39:54.120Z,100520.23
2018-02-12T07:42:21.835Z,100531.42
2018-02-12T07:44:49.554Z,100527.91
2018-02-12T07:47:17.363Z,100530.98
2018-02-12T07:49:45.069Z,100532.20
2018-02-12T07:52:12.790Z,100535.64
2018-02-12T07:54:40.474Z,100540.73
2018-02-12T07:57:08.215Z,100550.48
2018-02-12T07:59:35.891Z,100560.75
2018-02-12T08:02:03.658Z,100567.13
2018-02-12T08:04:31.366Z,100565.67
2018-02-12T08:06:59.103Z,100568.48
2018-02-12T08:09:27.709Z,100570.83
2018-02-12T08:11:55.416Z,100577.20
2018-02-12T08:14:23.135Z,100579.08
2018-02-12T08:16:50.820Z,100579.91
2018-02-12T08:19:18.455Z,100582.70
2018-02-12T08:21:46.111Z,100580.47
2018-02-12T08:24:13.801Z,100582.78
2018-02-12T08:26:41.544Z,100586.50
2018-02-12T08:29:09.154Z,100588.43
2018-02-12T08:31:36.795Z,100593.77
2018-02-12T08:34:04.590Z,100599.22
2018-02-12T08:36:32.279Z,100608.02
2018-02-12T08:38:59.975Z,100609.23
2018-02-12T08:41:27.734Z,100616.53
2018-02-12T08:43:55.443Z,100612.69
2018-02-12T08:46:23.765Z,100619.45
2018-02-12T08:48:51.586Z,100625.16
2018-02-12T08:51:19.301Z,100631.08
2018-02-12T08:53:46.959Z,100635.95
2018-02-12T08:56:14.575Z,100631.66
2018-02-12T08:58:42.339Z,100642.24
2018-02-12T09:01:10.015Z,100653.36
2018-02-12T09:03:37.743Z,100658.98
2018-02-12T09:06:05.342Z,100656.48
2018-02-12T09:08:33.054Z,100657.62
2018-02-12T09:11:00.748Z,100663.78
2018-02-12T09:13:28.473Z,100663.63
2018-02-12T09:15:56.175Z,100666.45
2018-02-12T09:18:23.920Z,100672.69
2018-02-12T09:20:51.623Z,100675.55
2018-02-12T09:23:19.423Z,100685.38
2018-02-12T09:25:47.161Z,100683.70
2018-02-12T09:28:14.871Z,100693.27
2018-02-12T09:30:42.559Z,100689.56
2018-02-12T09:33:10.418Z,100683.14
2018-02-12T09:35:38.222Z,100703.66
2018-02-12T09:38:05.988Z,100700.25
2018-02-12T09:40:33.674Z,100697.94
2018-02-12T09:43:01.410Z,100703.02
2018-02-12T09:45:29.053Z,100704.20
2018-02-12T09:47:56.763Z,100710.91
2018-02-12T09:50:24.605Z,100705.06
2018-02-12T09:52:52.359Z,100715.77
2018-02-12T09:55:20.072Z,100715.96
2018-02-12T09:57:47.697Z,100728.32
2018-02-12T10:00:15.395Z,100718.72
2018-02-12T10:02:43.004Z,100721.78
2018-02-12T10:05:10.643Z,100747.14
2018-02-12T10:07:38.285Z,100726.97
2018-02-12T10:10:06.035Z,100738.39
2018-02-12T10:12:33.652Z,100733.17
2018-02-12T10:15:01.292Z,100737.04
2018-02-12T10:17:29.078Z,100739.80
2018-02-12T10:19:56.803Z,100746.17
2018-02-12T10:22:24.526Z,100763.28
2018-02-12T10:24:52.195Z,100752.66
2018-02-12T10:27:19.867Z,100761.33
2018-02-12T10:29:47.523Z,100763.53
2018-02-12T10:32:15.172Z,100763.77
2018-02-12T10:34:42.806Z,100768.21
2018-02-12T10:37:10.412Z,100763.98
2018-02-12T10:39:38.051Z,100767.97
2018-02-12T10:42:05.669Z,100766.43
2018-02-12T10:44:33.306Z,100767.27
2018-02-12T10:47:00.935Z,100775.91
2018-02-12T10:49:28.551Z,100779.63
2018-02-12T10:51:56.214Z,100779.36
2018-02-12T10:54:23.896Z,100780.80
2018-02-12T10:56:51.515Z,100785.25
2018-02-12T10:59:19.153Z,100790.43
2018-02-12T11:01:46.832Z,100786.65
2018-02-12T11:04:14.488Z,100788.16
2018-02-12T11:06:42.165Z,100795.21
2018-02-12T11:09:09.812Z,100786.84
2018-02-12T11:11:37.440Z,100794.94
2018-02-12T11:14:05.142Z,100790.15
2018-02-12T11:16:32.772Z,100788.20
2018-02-12T11:19:00.424Z,100777.91
2018-02-12T11:21:28.043Z,100780.81
2018-02-12T11:23:55.714Z,100785.87
2018-02-12T11:26:23.334Z,100784.63
2018-02-12T11:28:50.961Z,100791.11
2018-02-12T11:31:18.567Z,100789.33
2018-02-12T11:33:46.236Z,100793.34
2018-02-12T11:36:13.932Z,100786.66
2018-02-12T11:38:41.543Z,100803.55
2018-02-12T11:41:09.178Z,100799.55
2018-02-12T11:43:36.828Z,100788.83
2018-02-12T11:46:04.512Z,100792.55
2018-02-12T11:48:32.201Z,100810.14
2018-02-12T11:50:59.853Z,100800.92
2018-02-12T11:53:27.503Z,100798.96
2018-02-12T11:55:55.136Z,100807.02
2018-02-12T11:58:22.784Z,100802.09
2018-02-12T12:00:50.467Z,100814.62
2018-02-12T12:03:18.099Z,100809.75
2018-02-12T12:05:45.742Z,100802.20
2018-02-12T12:08:13.354Z,100799.81
2018-02-12T12:10:41.100Z,100813.78
2018-02-12T12:13:08.706Z,100810.73
2018-02-12T12:15:36.431Z,100804.17
2018-02-12T12:18:04.050Z,100801.91
2018-02-12T12:20:32.273Z,100803.58
2018-02-12T12:22:59.882Z,100812.31
2018-02-12T12:25:27.533Z,100820.01
2018-02-12T12:27:55.143Z,100827.66
2018-02-12T12:30:22.783Z,100804.39
2018-02-12T12:32:50.411Z,100809.09
2018-02-12T12:35:18.061Z,100816.48
2018-02-12T12:37:45.692Z,100805.00
2018-02-12T12:40:13.323Z,100816.58
2018-02-12T12:42:40.958Z,100848.01
2018-02-12T12:45:08.611Z,100817.25
2018-02-12T12:47:36.203Z,100805.96
2018-02-12T12:50:03.865Z,100808.73
2018-02-12T12:52:31.529Z,100813.49
2018-02-12T12:54:59.182Z,100815.28
2018-02-12T12:57:26.812Z,100840.84
2018-02-12T12:59:54.441Z,100807.10
2018-02-12T13:02:22.046Z,100815.16
2018-02-12T13:04:49.712Z,100810.41
2018-02-12T13:07:17.336Z,100817.85
2018-02-12T13:09:45.005Z,100811.38
2018-02-12T13:12:12.607Z,100809.75
2018-02-12T13:14:40.209Z,100814.05
2018-02-12T13:17:08.011Z,100812.12
2018-02-12T13:19:35.654Z,100819.46
2018-02-12T13:22:03.299Z,100819.17
2018-02-12T13:24:30.894Z,100806.63
2018-02-12T13:26:58.560Z,100816.17
2018-02-12T13:29:26.244Z,100824.14
2018-02-12T13:31:53.902Z,100818.30
2018-02-12T13:34:21.515Z,100819.80
2018-02-12T13:36:49.155Z,100813.55
2018-02-12T13:39:16.795Z,100814.53
2018-02-12T13:41:44.446Z,100814.67
2018-02-12T13:44:12.054Z,100809.53
2018-02-12T13:46:39.722Z,100818.38
2018-02-12T13:49:07.334Z,100826.05
2018-02-12T13:51:34.962Z,100831.52
2018-02-12T13:54:02.636Z,100822.12
2018-02-12T13:56:30.282Z,100823.07
2018-02-12T13:58:57.885Z,100819.03
2018-02-12T14:01:25.605Z,100820.84
2018-02-12T14:03:53.245Z,100822.68
2018-02-12T14:06:20.842Z,100821.89
2018-02-12T14:08:48.523Z,100828.38
2018-02-12T14:11:16.146Z,100814.02
2018-02-12T14:13:43.799Z,100820.09
2018-02-12T14:16:11.478Z,100823.41
2018-02-12T14:18:39.074Z,100818.21
2018-02-12T14:21:06.768Z,100816.50
2018-02-12T14:23:35.054Z,100820.35
2018-02-12T14:26:02.754Z,100820.94
2018-02-12T14:28:30.399Z,100825.05
2018-02-12T14:30:58.050Z,100826.44
2018-02-12T14:33:25.666Z,100826.54
2018-02-12T14:35:53.354Z,100849.69
2018-02-12T14:38:21.040Z,100848.09
2018-02-12T14:40:48.718Z,100848.55
2018-02-12T14:43:16.339Z,100851.38
2018-02-12T14:45:43.999Z,100852.14
2018-02-12T14:48:11.615Z,100864.52
2018-02-12T14:50:39.375Z,100875.41
2018-02-12T14:53:07.004Z,100897.55
2018-02-12T14:55:34.698Z,100918.77
2018-02-12T14:58:02.338Z,100895.41
2018-02-12T15:00:30.010Z,100891.22
2018-02-12T15:02:57.661Z,100886.10
2018-02-12T15:05:25.339Z,100889.13
2018-02-12T15:07:52.978Z,100888.65
2018-02-12T15:10:20.654Z,100889.44
2018-02-12T15:12:48.367Z,100887.79
2018-02-12T15:15:15.982Z,100883.48
2018-02-12T15:17:43.752Z,100887.37
2018-02-12T15:20:11.390Z,100888.97
2018-02-12T15:22:39.058Z,100887.31
2018-02-12T15:25:06.667Z,100889.17
2018-02-12T15:27:34.316Z,100892.05
2018-02-12T15:30:02.002Z,100897.13
2018-02-12T15:32:29.692Z,100893.47
2018-02-12T15:34:57.417Z,100899.28
2018-02-12T15:37:25.034Z,100899.35
2018-02-12T15:39:52.695Z,100899.91
2018-02-12T15:42:20.428Z,100898.03
2018-02-12T15:44:48.090Z,100904.09
2018-02-12T15:47:15.724Z,100908.73
2018-02-12T15:49:43.405Z,100905.07
2018-02-12T15:52:11.078Z,100898.96
2018-02-12T15:54:38.691Z,100901.55
2018-02-12T15:57:06.326Z,100905.20
2018-02-12T15:59:34.059Z,100907.80
2018-02-12T16:02:01.802Z,100904.48
2018-02-12T16:04:29.510Z,100906.06
2018-02-12T16:06:57.163Z,100901.37
2018-02-12T16:09:24.802Z,100906.08
2018-02-12T16:11:52.464Z,100913.62
2018-02-12T16:14:20.073Z,100911.17
2018-02-12T16:16:47.734Z,100907.92
2018-02-12T16:19:15.392Z,100911.81
2018-02-12T16:21:43.045Z,100914.38
2018-02-12T16:24:10.658Z,100912.94
2018-02-12T16:26:38.417Z,100911.73
2018-02-12T16:29:06.073Z,100909.57
2018-02-12T16:31:33.706Z,100917.30
2018-02-12T16:34:01.334Z,100920.30
2018-02-12T16:36:28.978Z,100916.03
2018-02-12T16:38:56.622Z,100925.56
2018-02-12T16:41:24.522Z,100925.39
2018-02-12T16:43:52.130Z,100922.13
2018-02-12T16:46:19.749Z,100924.19
2018-02-12T16:48:47.396Z,100921.61
2018-02-12T16:51:15.035Z,100921.08
2018-02-12T16:53:42.679Z,100915.33
2018-02-12T16:56:10.340Z,100917.86
2018-02-12T16:58:37.982Z,100915.98
2018-02-12T17:01:05.611Z,100923.73
2018-02-12T17:03:33.222Z,100925.02
2018-02-12T17:06:00.889Z,100931.08
2018-02-12T17:08:28.513Z,100932.00
2018-02-12T17:10:56.163Z,100932.49
2018-02-12T17:13:23.803Z,100931.36
2018-02-12T17:15:51.436Z,100935.63
2018-02-12T17:18:19.088Z,100936.41
2018-02-12T17:20:47.059Z,100935.84
2018-02-12T17:23:14.995Z,100943.29
2018-02-12T17:25:42.655Z,100946.67
2018-02-12T17:28:10.320Z,100945.73
2018-02-12T17:30:37.966Z,100946.59
2018-02-12T17:33:05.650Z,100945.59
2018-02-12T17:35:33.279Z,100947.81
2018-02-12T17:38:00.953Z,100946.48
2018-02-12T17:40:28.562Z,100950.14
2018-02-12T17:42:56.316Z,100951.89
2018-02-12T17:45:23.943Z,100950.86
2018-02-12T17:47:51.606Z,100951.95
2018-02-12T17:50:19.238Z,100953.72
2018-02-12T17:52:46.900Z,100956.80
2018-02-12T17:55:14.541Z,100962.44
2018-02-12T17:57:42.223Z,100966.53
2018-02-12T18:00:09.857Z,100964.28
2018-02-12T18:02:37.535Z,100962.11
2018-02-12T18:05:05.195Z,100963.41
2018-02-12T18:07:33.054Z,100961.55
2018-02-12T18:10:00.755Z,100966.41
2018-02-12T18:12:28.435Z,100972.94
2018-02-12T18:14:56.112Z,100963.30
2018-02-12T18:17:23.895Z,100967.70
2018-02-12T18:19:51.507Z,100970.06
2018-02-12T18:22:19.160Z,100968.16
2018-02-12T18:24:46.860Z,100964.41
2018-02-12T18:27:14.535Z,100974.68
2018-02-12T18:29:42.210Z,100969.05
2018-02-12T18:32:09.847Z,100968.91
2018-02-12T18:34:37.489Z,100967.70
2018-02-12T18:37:05.170Z,100974.33
2018-02-12T18:39:32.838Z,100972.78
2018-02-12T18:42:00.590Z,100974.09
2018-02-12T18:44:28.229Z,100973.77
2018-02-12T18:46:56.023Z,100972.95
2018-02-12T18:49:24.362Z,100977.86
2018-02-12T18:51:52.027Z,100982.69
2018-02-12T18:54:19.656Z,100983.81
2018-02-12T18:56:48.191Z,100984.84
2018-02-12T18:59:15.808Z,100978.17
2018-02-12T19:01:43.447Z,100984.81
2018-02-12T19:04:11.057Z,100988.98
2018-02-12T19:06:38.757Z,100987.24
2018-02-12T19:09:06.421Z,100986.28
2018-02-12T19:11:34.063Z,100988.11
2018-02-12T19:14:01.677Z,100988.00
2018-02-12T19:16:29.606Z,100989.23
2018-02-12T19:18:57.271Z,100996.61
2018-02-12T19:21:24.977Z,100997.44
2018-02-12T19:23:53.234Z,100992.67
2018-02-12T19:26:20.899Z,100996.31
2018-02-12T19:28:48.527Z,101000.29
2018-02-12T19:31:16.191Z,100998.88
2018-02-12T19:33:43.843Z,101003.47
2018-02-12T19:36:11.571Z,101000.23
2018-02-12T19:38:39.338Z,100998.59
2018-02-12T19:41:07.098Z,101004.28
2018-02-12T19:43:34.712Z,101004.19
2018-02-12T19:46:03.318Z,101006.13
2018-02-12T19:48:30.930Z,101002.36
2018-02-12T19:51:00.299Z,101001.20
2018-02-12T19:53:27.912Z,101013.00
2018-02-12T19:55:55.556Z,101014.34
2018-02-12T19:58:23.282Z,101009.06
2018-02-12T20:00:50.904Z,101011.39
2018-02-12T20:03:18.623Z,101010.66
2018-02-12T20:05:46.368Z,101013.00
2018-02-12T20:08:14.139Z,101004.70
2018-02-12T20:10:41.810Z,101006.02
2018-02-12T20:13:09.464Z,101009.14
2018-02-12T20:15:37.897Z,101011.19
2018-02-12T20:18:05.572Z,101011.78
2018-02-12T20:20:33.227Z,101011.80
2018-02-12T20:23:00.933Z,101009.06
2018-02-12T20:25:28.559Z,101017.52
2018-02-12T20:27:56.192Z,101015.27
2018-02-12T20:30:23.881Z,101014.14
2018-02-12T20:32:51.499Z,101014.75
2018-02-12T20:35:19.138Z,101014.43
2018-02-12T20:37:47.472Z,101013.72
2018-02-12T20:40:15.244Z,101021.20
2018-02-12T20:42:42.988Z,101017.53
2018-02-12T20:45:10.676Z,101022.70
2018-02-12T20:47:38.312Z,101023.01
2018-02-12T20:50:06.925Z,101020.34
2018-02-12T20:52:35.282Z,101026.25
2018-02-12T20:55:02.972Z,101030.09
2018-02-12T20:57:30.688Z,101025.62
2018-02-12T20:59:58.399Z,101027.78
2018-02-12T21:02:26.139Z,101022.41
2018-02-12T21:04:53.855Z,101032.98
2018-02-12T21:07:21.589Z,101031.22
2018-02-12T21:09:49.396Z,101031.66
2018-02-12T21:12:17.012Z,101029.17
2018-02-12T21:14:44.750Z,101026.41
2018-02-12T21:17:12.490Z,101027.94
2018-02-12T21:19:40.227Z,101028.69
2018-02-12T21:22:07.993Z,101028.34
2018-02-12T21:24:35.685Z,101032.81
2018-02-12T21:27:03.383Z,101025.28
2018-02-12T21:29:31.143Z,101026.34
2018-02-12T21:31:58.996Z,101034.11
2018-02-12T21:34:26.718Z,101025.83
2018-02-12T21:36:54.414Z,101025.90
2018-02-12T21:39:22.161Z,101017.50
2018-02-12T21:41:49.834Z,101025.36
2018-02-12T21:44:17.566Z,101021.46
2018-02-12T21:46:45.336Z,101022.22
2018-02-12T21:49:13.047Z,101026.00
2018-02-12T21:51:40.794Z,101024.95
2018-02-12T21:54:08.511Z,101029.28
2018-02-12T21:56:36.287Z,101031.42
2018-02-12T21:59:04.058Z,101035.38
2018-02-12T22:01:31.764Z,101028.91
2018-02-12T22:03:59.515Z,101027.73
2018-02-12T22:06:27.209Z,101030.45
2018-02-12T22:08:55.056Z,101023.84
2018-02-12T22:11:23.630Z,101025.06
2018-02-12T22:13:51.314Z,101025.81
2018-02-12T22:16:19.074Z,101022.86
2018-02-12T22:18:47.009Z,101016.08
2018-02-12T22:21:15.476Z,101018.55
2018-02-12T22:23:43.223Z,101017.25
2018-02-12T22:26:11.016Z,101020.22
2018-02-12T22:28:38.822Z,101022.26
2018-02-12T22:31:06.562Z,101015.34
2018-02-12T22:33:34.871Z,101016.84
2018-02-12T22:36:02.592Z,101017.63
2018-02-12T22:38:31.726Z,101014.66
2018-02-12T22:40:59.657Z,101015.17
2018-02-12T22:43:27.403Z,101012.66
2018-02-12T22:45:55.090Z,101017.22
2018-02-12T22:48:22.848Z,101018.44
2018-02-12T22:50:50.595Z,101012.57
2018-02-12T22:53:18.298Z,101013.09
2018-02-12T22:55:46.071Z,101017.39
2018-02-12T22:58:14.079Z,101013.44
2018-02-12T23:00:41.795Z,101007.86
2018-02-12T23:03:09.462Z,101013.35
2018-02-12T23:05:37.295Z,101008.98
2018-02-12T23:08:05.089Z,101012.22
2018-02-12T23:10:32.830Z,101013.64
2018-02-12T23:13:00.516Z,101013.64
2018-02-12T23:15:34.138Z,101013.52
2018-02-12T23:18:02.243Z,101017.91
2018-02-12T23:20:30.011Z,101014.34
2018-02-12T23:22:57.695Z,101013.69
2018-02-12T23:25:25.495Z,101010.32
2018-02-12T23:27:53.228Z,101006.99
2018-02-12T23:30:20.962Z,101011.35
2018-02-12T23:32:48.838Z,101017.00
2018-02-12T23:35:16.532Z,101011.02
2018-02-12T23:37:44.262Z,101008.03
2018-02-12T23:40:11.965Z,101016.77
2018-02-12T23:42:39.672Z,101016.96
2018-02-12T23:45:07.421Z,101009.56
2018-02-12T23:47:35.072Z,101011.05
2018-02-12T23:50:02.810Z,101013.56
2018-02-12T23:52:30.555Z,101013.08
2018-02-12T23:54:58.296Z,101014.97
2018-02-12T23:57:26.012Z,101008.91
2018-02-12T23:59:53.747Z,101013.35
